LTAY/DNZ METAR and TAF weather

Enter ICAO airport designator
Station Type Date Time Source
LTAY METAR 2019/10/15 20:50 UTC NOAA

LTAY 152050Z 22003KT 200V260 9999 SCT035 BKN100 18/10 Q1019


Station Type Date Time Source
LTAY Decoded METAR 2019/10/15 20:50 UTC NOAA

Cardak, Turkey (LTAY) 37-47N 029-42E
Oct 15, 2019 - 04:50 PM EDT / 2019.10.15 2050 UTC
Wind: from the SW (220 degrees) at 3 MPH (3 KT) (direction variable):0
Visibility: greater than 7 mile(s):0
Sky conditions: mostly cloudy
Temperature: 64 F (18 C)
Dew Point: 50 F (10 C)
Relative Humidity: 59%
Pressure (altimeter): 30.09 in. Hg (1019 hPa)
ob: LTAY 152050Z 22003KT 200V260 9999 SCT035 BKN100 18/10 Q1019
cycle: 21

Station Type Date Time Source
LTAY TAF UTC NOAA

Error!

Example: see airport list